Terminal Aerodrome Forecast
Issued by NWS

Home | Current Version | Previous Version | Text Only | Print | Product List | Glossary On
Versions: 1 2 3 4 5 6 7 8 9 10 11 12 13 14 15
026
FTUS43 KLSX 222325
TAFCPS
TAF
KCPS 222325Z 2300/2324 17008KT P6SM OVC060
     FM230800 19007KT P6SM BKN090
     FM231100 22006KT P6SM VCTS BKN030CB
      TEMPO 2312/2315 5SM -TSRA BR OVC015CB
     FM231600 32010KT P6SM VCSH BKN025
     FM232000 35013G19KT P6SM BKN045=

USA.gov is the U.S. government's official web portal to all federal, state and local government web resources and services.